Bogota, New Jersey
Current Conditions -  °F | °C
As of 4:51 PM on Sunday 25 Jan 2015 (Local Time) from KTEB Reporting Station
Clear Clear  
Wind Chill:   Ceiling: Unl
Heat Index:   Visibility: 10mi
Dew Point: -12°   Wind: 7mph
Humidity: 33%   Direction: 330°NNW
Pressure: 29.84"   Gusts: NA
Location:  40.88°N, 74.03°W
Report Text: KTEB 252151Z 33006KT 10SM CLR 03/M12 A2984 RMK AO2 SLP103 T00281122 $
Loading
Personal Weather Stations






























Interactive Weather Map New forecast layout! Learn more

10-Day Weather Forecast

Advertisements
Track Severe Weather on mobile